Time;durP1;ratioP1;P1;durP2;ratioP2;P2;SDS_P1;SDS_P2;PMS_P1;PMS_P2;Temp;Humidity;BMP_temperature;BMP_pressure;BME280_temperature;BME280_humidity;BME280_pressure;Samples;Min_cycle;Max_cycle;Signal;HPM_P1;HPM_P2
2021/08/13 00:01:39;;;;;;;5.33;3.85;;;;;;;17.56;60.53;100623.97;1733754;82;21416;-69
2021/08/13 00:04:05;;;;;;;6.03;3.52;;;;;;;17.57;60.44;100624.34;1729839;82;21517;-69
2021/08/13 00:06:32;;;;;;;6.20;4.10;;;;;;;17.57;60.46;100628.34;1734427;82;20990;-69
2021/08/13 00:08:58;;;;;;;9.25;4.10;;;;;;;17.56;60.51;100628.81;1730110;82;22484;-70
2021/08/13 00:11:25;;;;;;;9.93;3.90;;;;;;;17.58;60.42;100635.36;1736640;82;21387;-69
2021/08/13 00:13:51;;;;;;;8.85;3.85;;;;;;;17.59;60.25;100634.36;1737002;82;21369;-69
2021/08/13 00:16:18;;;;;;;7.45;3.95;;;;;;;17.62;60.17;100634.02;1729213;82;21033;-69
2021/08/13 00:18:44;;;;;;;6.28;3.58;;;;;;;17.63;60.03;100637.86;1732502;82;21046;-69
2021/08/13 00:21:11;;;;;;;7.65;3.70;;;;;;;17.66;59.86;100638.03;1729741;82;21845;-70
2021/08/13 00:23:37;;;;;;;7.65;4.12;;;;;;;17.64;59.76;100638.20;1707463;82;21006;-69
2021/08/13 00:26:04;;;;;;;6.55;3.77;;;;;;;17.64;59.59;100646.21;1708987;82;21656;-70
2021/08/13 00:28:30;;;;;;;5.83;3.62;;;;;;;17.64;59.57;100649.38;1736409;82;21433;-69
2021/08/13 00:30:57;;;;;;;5.08;3.60;;;;;;;17.63;59.58;100651.22;1695327;83;21515;-69
2021/08/13 00:33:24;;;;;;;6.85;3.70;;;;;;;17.65;59.48;100652.39;1737742;82;21812;-69
2021/08/13 00:35:51;;;;;;;5.40;3.85;;;;;;;17.67;59.44;100658.43;1735251;82;20865;-69
2021/08/13 00:38:19;;;;;;;7.45;3.77;;;;;;;17.65;59.39;100650.55;1736763;82;20985;-70
2021/08/13 00:40:45;;;;;;;6.42;3.67;;;;;;;17.67;59.42;100646.41;1703675;83;21095;-70
2021/08/13 00:43:13;;;;;;;6.08;3.83;;;;;;;17.67;59.30;100650.42;1684982;82;21550;-70
2021/08/13 00:45:41;;;;;;;8.40;3.90;;;;;;;17.67;59.26;100651.25;1716438;82;22577;-70
2021/08/13 00:48:09;;;;;;;5.87;3.75;;;;;;;17.67;59.33;100654.42;1678208;83;21149;-70
2021/08/13 00:50:41;;;;;;;6.60;3.55;;;;;;;17.65;59.45;100653.22;1731026;80;21380;-70
2021/08/13 00:53:08;;;;;;;5.58;3.70;;;;;;;17.61;59.64;100654.55;1727658;82;21001;-69
2021/08/13 00:55:37;;;;;;;7.00;3.75;;;;;;;17.58;59.94;100654.89;1716912;82;21002;-69
2021/08/13 00:58:06;;;;;;;5.33;3.70;;;;;;;17.50;60.00;100660.19;1734747;82;21839;-70
2021/08/13 01:00:43;;;;;;;6.20;4.03;;;;;;;17.49;60.05;100665.19;1727791;82;21329;-69
2021/08/13 01:03:09;;;;;;;6.65;3.72;;;;;;;17.47;59.96;100669.86;1734826;82;21356;-69
2021/08/13 01:05:39;;;;;;;5.60;3.80;;;;;;;17.46;59.95;100673.00;1714311;82;21377;-70
2021/08/13 01:08:07;;;;;;;5.80;3.58;;;;;;;17.46;59.86;100674.83;1734712;82;21021;-69
2021/08/13 01:10:42;;;;;;;7.72;3.92;;;;;;;17.46;59.98;100670.83;1725806;82;21809;-69
2021/08/13 01:13:33;;;;;;;6.65;3.80;;;;;;;17.44;60.17;100674.16;1732768;82;20859;-70
2021/08/13 01:16:01;;;;;;;6.22;3.70;;;;;;;17.40;60.23;100679.00;1716171;82;21045;-70
2021/08/13 01:18:37;;;;;;;6.05;3.95;;;;;;;17.34;60.39;100676.11;1735716;82;20953;-69
2021/08/13 01:21:41;;;;;;;8.10;4.17;;;;;;;17.32;60.33;100680.78;1734889;82;21070;-69
2021/08/13 01:24:16;;;;;;;8.13;4.10;;;;;;;17.34;60.45;100680.11;1726165;82;21895;-70
2021/08/13 01:27:05;;;;;;;7.35;3.87;;;;;;;17.33;60.59;100681.95;1733411;82;21080;-70
2021/08/13 01:29:57;;;;;;;5.22;3.72;;;;;;;17.28;60.69;100678.93;1720711;82;20945;-69
2021/08/13 01:32:48;;;;;;;6.17;3.72;;;;;;;17.26;60.85;100689.41;1744591;81;21001;-70
2021/08/13 01:35:31;;;;;;;6.37;3.95;;;;;;;17.22;60.88;100694.23;1732700;81;21072;-69
2021/08/13 01:38:16;;;;;;;6.35;3.77;;;;;;;17.17;61.03;100693.34;1727843;81;22541;-69
2021/08/13 01:40:47;;;;;;;7.87;3.70;;;;;;;17.15;61.18;100686.50;1703794;82;21328;-69
2021/08/13 01:43:16;;;;;;;10.55;3.72;;;;;;;17.11;61.39;100691.33;1711010;82;21053;-69
2021/08/13 01:45:44;;;;;;;8.85;4.08;;;;;;;17.04;61.46;100696.10;1721715;81;21135;-69
2021/08/13 01:48:12;;;;;;;6.42;4.20;;;;;;;17.01;61.58;100695.09;1747446;81;20977;-70
2021/08/13 01:50:41;;;;;;;8.05;4.30;;;;;;;16.97;61.82;100697.71;1716251;82;21887;-70
2021/08/13 01:53:10;;;;;;;6.80;3.83;;;;;;;16.92;61.90;100707.53;1706553;82;20965;-69
2021/08/13 01:55:39;;;;;;;7.75;4.20;;;;;;;16.90;62.05;100701.52;1731805;81;21413;-70
2021/08/13 01:58:07;;;;;;;6.35;4.00;;;;;;;16.86;62.18;100700.97;1713971;81;20993;-69
2021/08/13 02:00:36;;;;;;;6.78;3.80;;;;;;;16.84;62.18;100707.45;1726636;82;20997;-70
2021/08/13 02:03:06;;;;;;;5.67;3.98;;;;;;;16.80;62.28;100696.27;1713375;81;21499;-70
2021/08/13 02:05:33;;;;;;;8.90;3.95;;;;;;;16.81;62.35;100697.94;1710777;81;21449;-69
2021/08/13 02:08:06;;;;;;;5.65;3.72;;;;;;;16.80;62.37;100704.27;1718961;81;21022;-69
2021/08/13 02:10:36;;;;;;;5.95;4.00;;;;;;;16.79;62.54;100708.40;1701106;82;21019;-69
2021/08/13 02:13:19;;;;;;;9.65;4.20;;;;;;;16.74;62.77;100709.38;1708572;83;21036;-69
2021/08/13 02:15:54;;;;;;;6.80;3.58;;;;;;;16.68;62.96;100714.81;1727518;82;21014;-70
2021/08/13 02:18:22;;;;;;;6.42;3.83;;;;;;;16.60;63.13;100709.39;1725830;82;21001;-70
2021/08/13 02:20:52;;;;;;;6.00;3.70;;;;;;;16.50;63.27;100712.13;1671264;84;21070;-70
2021/08/13 02:23:19;;;;;;;6.80;4.17;;;;;;;16.43;63.38;100708.39;1695340;84;21085;-71
2021/08/13 02:25:49;;;;;;;7.50;3.98;;;;;;;16.41;63.50;100710.38;1703980;82;21029;-70
2021/08/13 02:28:19;;;;;;;5.85;3.87;;;;;;;16.43;63.53;100712.89;1702724;83;20948;-70
2021/08/13 02:30:48;;;;;;;11.03;4.20;;;;;;;16.44;63.60;100712.73;1715381;82;21077;-70
2021/08/13 02:33:15;;;;;;;6.58;4.10;;;;;;;16.46;63.64;100716.08;1714644;83;21453;-69
2021/08/13 02:35:45;;;;;;;7.03;4.05;;;;;;;16.48;63.60;100716.75;1733516;82;21404;-68
2021/08/13 02:38:24;;;;;;;6.25;3.70;;;;;;;16.47;63.71;100717.75;1734819;82;21429;-68
2021/08/13 02:40:59;;;;;;;7.03;3.70;;;;;;;16.44;63.75;100715.39;1689425;84;21793;-69
2021/08/13 02:43:45;;;;;;;6.67;4.10;;;;;;;16.48;63.74;100722.09;1729327;82;21002;-70
2021/08/13 02:46:13;;;;;;;7.42;4.20;;;;;;;16.49;63.79;100719.77;1696644;84;21448;-69
2021/08/13 02:48:42;;;;;;;6.12;3.77;;;;;;;16.48;63.83;100720.75;1713610;82;20970;-69
2021/08/13 02:51:13;;;;;;;8.98;4.08;;;;;;;16.46;63.92;100724.08;1726561;82;21014;-69
2021/08/13 02:53:42;;;;;;;6.90;4.00;;;;;;;16.43;64.05;100728.39;1728074;82;20990;-70
2021/08/13 02:56:13;;;;;;;6.87;3.98;;;;;;;16.38;64.21;100727.98;1728312;82;21529;-72
2021/08/13 02:58:52;;;;;;;7.33;3.92;;;;;;;16.38;64.24;100727.15;1734392;82;21470;-70
2021/08/13 03:01:23;;;;;;;7.70;4.17;;;;;;;16.40;64.26;100731.83;1730827;82;20970;-69
2021/08/13 03:03:52;;;;;;;6.30;4.03;;;;;;;16.40;64.34;100731.33;1726973;82;21373;-69
2021/08/13 03:06:20;;;;;;;5.85;3.90;;;;;;;16.40;64.43;100730.00;1728197;83;21810;-69
2021/08/13 03:08:47;;;;;;;5.95;3.90;;;;;;;16.40;64.44;100731.33;1726123;82;20866;-69
2021/08/13 03:11:15;;;;;;;6.97;4.03;;;;;;;16.40;64.45;100735.83;1715912;82;21369;-69
2021/08/13 03:13:43;;;;;;;5.87;3.80;;;;;;;16.40;64.53;100734.00;1739296;82;21412;-69
2021/08/13 03:16:12;;;;;;;7.12;3.67;;;;;;;16.43;64.53;100735.05;1728641;82;21397;-69
2021/08/13 03:18:42;;;;;;;7.15;4.22;;;;;;;16.49;64.50;100738.43;1726693;82;20942;-69
2021/08/13 03:21:10;;;;;;;7.60;4.30;;;;;;;16.53;64.42;100742.98;1729458;82;21525;-69
2021/08/13 03:23:38;;;;;;;9.65;3.83;;;;;;;16.58;64.43;100742.02;1738275;82;21432;-69
2021/08/13 03:26:07;;;;;;;6.20;3.70;;;;;;;16.60;64.51;100742.73;1738827;81;21532;-70
2021/08/13 03:28:35;;;;;;;5.97;3.98;;;;;;;16.62;64.41;100747.91;1732361;82;21359;-69
2021/08/13 03:31:02;;;;;;;5.80;3.60;;;;;;;16.66;64.38;100747.94;1739246;82;21831;-69
2021/08/13 03:33:31;;;;;;;7.45;3.87;;;;;;;16.70;64.38;100747.53;1735177;82;21446;-69
2021/08/13 03:35:59;;;;;;;5.78;3.95;;;;;;;16.74;64.24;100747.55;1730456;82;20965;-70
2021/08/13 03:38:27;;;;;;;5.90;3.42;;;;;;;16.78;64.20;100752.08;1711744;82;21405;-69
2021/08/13 03:40:54;;;;;;;5.35;3.58;;;;;;;16.81;64.15;100751.80;1731666;82;21100;-69
2021/08/13 03:43:21;;;;;;;6.08;4.03;;;;;;;16.85;64.09;100759.82;1712045;82;21814;-69
2021/08/13 03:45:48;;;;;;;7.08;3.90;;;;;;;16.90;64.11;100756.21;1711161;82;21014;-70
2021/08/13 03:48:15;;;;;;;6.50;4.12;;;;;;;16.94;64.04;100758.91;1701317;82;21088;-69
2021/08/13 03:50:41;;;;;;;6.90;4.22;;;;;;;16.97;64.03;100763.09;1700367;82;21018;-69
2021/08/13 03:53:07;;;;;;;8.15;4.25;;;;;;;16.98;64.04;100765.59;1704054;83;21030;-69
2021/08/13 03:55:36;;;;;;;6.15;4.15;;;;;;;17.01;64.01;100761.80;1709598;82;21928;-70
2021/08/13 03:58:03;;;;;;;6.28;4.45;;;;;;;17.05;63.93;100761.83;1716606;82;20990;-69
2021/08/13 04:00:29;;;;;;;6.35;4.30;;;;;;;17.09;63.90;100768.05;1716816;82;20954;-71
2021/08/13 04:02:56;;;;;;;6.90;4.22;;;;;;;17.12;63.77;100767.73;1730494;82;21018;-69
2021/08/13 04:05:29;;;;;;;7.25;3.90;;;;;;;17.17;63.71;100766.75;1730993;82;21104;-69
2021/08/13 04:07:55;;;;;;;8.05;4.40;;;;;;;17.21;63.49;100768.64;1703395;83;21045;-69
2021/08/13 04:10:23;;;;;;;6.47;4.00;;;;;;;17.24;63.38;100774.99;1688118;84;20955;-70
2021/08/13 04:12:51;;;;;;;7.08;3.95;;;;;;;17.27;63.30;100779.17;1716300;82;20974;-72
2021/08/13 04:15:20;;;;;;;8.38;4.17;;;;;;;17.32;63.20;100772.89;1734096;82;21096;-72
2021/08/13 04:17:48;;;;;;;6.05;4.17;;;;;;;17.35;63.06;100771.23;1731640;82;20997;-71
2021/08/13 04:20:16;;;;;;;6.08;3.77;;;;;;;17.38;62.97;100770.94;1722683;82;21806;-74
2021/08/13 04:22:44;;;;;;;7.47;4.00;;;;;;;17.43;62.61;100775.30;1729293;82;21385;-72
2021/08/13 04:25:11;;;;;;;6.15;3.75;;;;;;;17.48;62.50;100777.02;1689645;84;21402;-73
2021/08/13 04:27:39;;;;;;;5.50;3.83;;;;;;;17.54;62.47;100779.05;1724995;82;21563;-73
2021/08/13 04:30:09;;;;;;;7.47;4.17;;;;;;;17.59;62.22;100783.44;1716715;82;20906;-74
2021/08/13 04:32:40;;;;;;;5.90;3.80;;;;;;;17.65;62.09;100783.28;1724243;82;22438;-69
2021/08/13 04:35:10;;;;;;;7.23;3.87;;;;;;;17.70;61.87;100787.70;1711412;82;21001;-71
2021/08/13 04:37:37;;;;;;;5.90;3.72;;;;;;;17.77;61.82;100789.25;1736977;82;21028;-71
2021/08/13 04:40:05;;;;;;;7.30;4.05;;;;;;;17.83;61.74;100789.44;1736355;82;21005;-72
2021/08/13 04:42:35;;;;;;;5.42;4.00;;;;;;;17.92;61.53;100795.66;1737544;82;20994;-71
2021/08/13 04:45:03;;;;;;;7.45;4.40;;;;;;;17.96;61.20;100785.85;1732411;82;21834;-71
2021/08/13 04:47:31;;;;;;;6.20;3.77;;;;;;;18.03;61.04;100787.36;1732000;82;20934;-71
2021/08/13 04:49:58;;;;;;;6.28;4.00;;;;;;;18.07;60.83;100794.58;1733100;82;21001;-70
2021/08/13 04:52:24;;;;;;;6.45;4.78;;;;;;;18.10;60.66;100792.92;1733171;82;21037;-71
2021/08/13 04:54:51;;;;;;;6.10;4.00;;;;;;;18.13;60.66;100788.08;1732799;82;21020;-70
2021/08/13 04:57:18;;;;;;;7.95;4.03;;;;;;;18.21;60.72;100784.61;1722377;82;22233;-71
2021/08/13 04:59:46;;;;;;;6.03;3.65;;;;;;;18.31;60.61;100794.67;1716310;82;20998;-74
2021/08/13 05:02:22;;;;;;;6.47;4.10;;;;;;;18.39;60.37;100793.87;1734431;82;21072;-73
2021/08/13 05:04:59;;;;;;;5.22;4.10;;;;;;;18.46;60.17;100797.08;1731641;82;21035;-74
2021/08/13 05:07:28;;;;;;;7.90;4.08;;;;;;;18.54;59.98;100804.30;1733223;82;21052;-74
2021/08/13 05:09:55;;;;;;;5.85;3.98;;;;;;;18.58;59.70;100797.09;1706453;83;22252;-73
2021/08/13 05:12:21;;;;;;;6.95;4.37;;;;;;;18.65;59.75;100808.03;1730742;82;21060;-74
2021/08/13 05:14:49;;;;;;;6.70;4.03;;;;;;;18.70;59.69;100796.31;1738095;82;20989;-73
2021/08/13 05:17:16;;;;;;;7.40;4.10;;;;;;;18.78;59.74;100794.16;1734721;82;21476;-71
2021/08/13 05:19:44;;;;;;;6.37;3.77;;;;;;;18.80;59.54;100792.16;1680223;84;20968;-70
2021/08/13 05:22:12;;;;;;;8.15;4.65;;;;;;;18.85;59.61;100792.52;1701449;82;21832;-71
2021/08/13 05:24:39;;;;;;;9.13;4.20;;;;;;;18.90;59.60;100790.66;1707206;83;20938;-72
2021/08/13 05:27:06;;;;;;;6.87;4.37;;;;;;;18.96;59.65;100795.36;1731738;82;20997;-71
2021/08/13 05:29:34;;;;;;;6.92;4.00;;;;;;;19.04;59.70;100797.55;1731696;82;20966;-71
2021/08/13 05:32:01;;;;;;;5.67;4.00;;;;;;;19.11;59.67;100793.20;1723132;82;21471;-75
2021/08/13 05:34:28;;;;;;;7.42;4.10;;;;;;;19.16;59.49;100799.39;1718377;82;22663;-73
2021/08/13 05:36:56;;;;;;;7.65;4.20;;;;;;;19.21;59.42;100802.92;1713035;82;21473;-71
2021/08/13 05:39:23;;;;;;;5.15;4.22;;;;;;;19.24;59.54;100800.73;1715712;83;20958;-72
2021/08/13 05:41:50;;;;;;;6.87;4.12;;;;;;;19.31;59.50;100803.08;1724755;82;20986;-72
2021/08/13 05:44:18;;;;;;;7.75;3.90;;;;;;;19.39;59.49;100802.22;1702301;82;21029;-72
2021/08/13 05:46:44;;;;;;;5.92;3.92;;;;;;;19.45;59.43;100809.09;1682943;84;21811;-71
2021/08/13 05:49:11;;;;;;;7.95;4.47;;;;;;;19.53;59.43;100808.75;1687037;83;21068;-72
2021/08/13 05:51:37;;;;;;;15.32;3.95;;;;;;;19.57;59.32;100813.63;1704131;83;21026;-71
2021/08/13 05:54:05;;;;;;;5.55;4.00;;;;;;;19.61;59.35;100806.94;1727918;82;21030;-71
2021/08/13 05:56:32;;;;;;;9.08;4.30;;;;;;;19.67;59.26;100806.23;1724518;82;20958;-70
2021/08/13 05:59:00;;;;;;;6.58;4.20;;;;;;;19.72;59.22;100809.76;1702403;82;21826;-70
2021/08/13 06:01:28;;;;;;;7.12;4.12;;;;;;;19.79;59.32;100806.73;1651054;86;21008;-70
2021/08/13 06:03:55;;;;;;;7.17;4.25;;;;;;;19.87;59.18;100806.69;1682959;85;21420;-70
2021/08/13 06:06:21;;;;;;;7.40;4.15;;;;;;;19.93;59.13;100806.02;1679011;83;20986;-70
2021/08/13 06:08:50;;;;;;;6.33;4.05;;;;;;;20.02;58.99;100810.85;1697761;83;20962;-71
2021/08/13 06:11:19;;;;;;;7.80;4.20;;;;;;;20.10;58.70;100809.48;1664542;85;21022;-70
2021/08/13 06:13:47;;;;;;;7.25;4.08;;;;;;;20.16;58.44;100812.80;1664902;85;21014;-70
2021/08/13 06:16:19;;;;;;;8.18;3.80;;;;;;;20.20;58.52;100811.97;1696487;83;20969;-69
2021/08/13 06:18:47;;;;;;;7.62;3.75;;;;;;;20.23;58.47;100809.77;1651078;86;21253;-71
2021/08/13 06:21:15;;;;;;;6.12;4.40;;;;;;;20.28;58.25;100817.30;1691985;83;21049;-72
2021/08/13 06:23:42;;;;;;;6.12;4.10;;;;;;;20.28;58.41;100819.48;1690646;84;22189;-71
2021/08/13 06:26:10;;;;;;;6.53;3.80;;;;;;;20.27;58.41;100817.81;1712114;83;20947;-71
2021/08/13 06:28:38;;;;;;;14.63;4.25;;;;;;;20.31;58.43;100815.61;1705131;83;21082;-71
2021/08/13 06:31:06;;;;;;;7.40;3.72;;;;;;;20.33;58.53;100816.77;1727860;82;21053;-71
2021/08/13 06:33:33;;;;;;;6.65;3.80;;;;;;;20.39;58.48;100818.26;1718234;83;21042;-71
2021/08/13 06:36:00;;;;;;;7.45;3.67;;;;;;;20.48;58.70;100827.14;1651243;86;21895;-71
2021/08/13 06:38:27;;;;;;;6.28;3.60;;;;;;;20.56;58.55;100822.57;1736802;82;21006;-71
2021/08/13 06:40:54;;;;;;;6.72;3.55;;;;;;;20.68;58.69;100824.86;1733522;82;20947;-70
2021/08/13 06:43:22;;;;;;;6.22;3.62;;;;;;;20.77;58.49;100821.95;1720851;82;21017;-70
2021/08/13 06:45:53;;;;;;;6.05;3.70;;;;;;;20.88;58.39;100822.05;1734622;82;21485;-70
2021/08/13 06:48:22;;;;;;;5.03;3.70;;;;;;;20.95;58.07;100816.80;1735594;82;22360;-70
2021/08/13 06:50:48;;;;;;;7.28;3.70;;;;;;;21.01;57.67;100824.96;1726124;82;21060;-70
2021/08/13 06:53:15;;;;;;;5.55;3.15;;;;;;;21.08;57.84;100828.61;1705380;82;21080;-71
2021/08/13 06:55:44;;;;;;;6.33;3.45;;;;;;;21.18;57.46;100826.20;1686592;82;21128;-69
2021/08/13 06:58:11;;;;;;;9.50;3.75;;;;;;;21.22;56.83;100828.84;1737504;82;20986;-68
2021/08/13 07:00:39;;;;;;;5.85;3.65;;;;;;;21.26;56.21;100831.51;1735687;82;21848;-69
2021/08/13 07:03:07;;;;;;;9.28;3.67;;;;;;;21.29;56.44;100827.14;1737112;82;21001;-70
2021/08/13 07:05:33;;;;;;;8.75;3.72;;;;;;;21.36;56.75;100828.09;1736378;82;20950;-71
2021/08/13 07:08:10;;;;;;;6.62;3.87;;;;;;;21.41;56.53;100825.17;1736994;82;20953;-70
2021/08/13 07:10:39;;;;;;;6.47;3.45;;;;;;;21.48;56.71;100824.46;1736302;82;21013;-71
2021/08/13 07:13:07;;;;;;;9.50;4.00;;;;;;;21.61;56.65;100817.94;1737928;82;20992;-70
2021/08/13 07:15:34;;;;;;;9.60;4.00;;;;;;;21.71;56.55;100824.75;1737531;82;21375;-70
2021/08/13 07:18:00;;;;;;;9.38;3.70;;;;;;;21.83;56.61;100831.02;1734678;82;20949;-71
2021/08/13 07:20:30;;;;;;;5.33;3.30;;;;;;;21.90;56.28;100823.35;1696303;84;20986;-71
2021/08/13 07:22:58;;;;;;;7.17;3.60;;;;;;;22.02;55.56;100826.95;1739012;80;21425;-70
2021/08/13 07:25:25;;;;;;;4.12;3.00;;;;;;;22.06;54.75;100826.89;1736306;82;22174;-71
2021/08/13 07:27:52;;;;;;;6.58;3.65;;;;;;;22.12;54.83;100831.06;1710449;82;20953;-70
2021/08/13 07:30:18;;;;;;;5.78;3.25;;;;;;;22.14;54.44;100826.33;1736409;82;21480;-70
2021/08/13 07:32:45;;;;;;;4.08;3.22;;;;;;;22.18;54.50;100825.43;1738430;82;21532;-69
2021/08/13 07:35:13;;;;;;;7.40;3.15;;;;;;;22.18;53.39;100826.27;1718817;82;20939;-70
2021/08/13 07:37:41;;;;;;;7.85;2.98;;;;;;;22.17;53.74;100831.84;1737667;82;22483;-71
2021/08/13 07:40:09;;;;;;;6.35;2.80;;;;;;;22.25;52.78;100821.81;1739539;82;21460;-70
2021/08/13 07:42:40;;;;;;;7.83;3.00;;;;;;;22.35;52.46;100815.31;1738557;82;21048;-70
2021/08/13 07:45:06;;;;;;;6.15;3.00;;;;;;;22.50;52.40;100822.86;1739172;82;21039;-70
2021/08/13 07:47:33;;;;;;;4.53;2.80;;;;;;;22.65;52.14;100816.91;1732499;82;21441;-71
2021/08/13 07:50:00;;;;;;;9.23;2.70;;;;;;;22.73;50.20;100822.70;1733137;82;21891;-72
2021/08/13 07:52:27;;;;;;;5.17;2.65;;;;;;;22.77;50.17;100823.46;1728151;82;20902;-71
2021/08/13 07:54:54;;;;;;;4.42;2.45;;;;;;;22.81;49.45;100823.42;1725105;82;21031;-73
2021/08/13 07:57:21;;;;;;;4.78;2.62;;;;;;;22.80;49.49;100823.10;1704854;82;20957;-72
2021/08/13 07:59:49;;;;;;;4.33;2.17;;;;;;;22.82;49.47;100821.05;1697508;84;21009;-73
2021/08/13 08:02:18;;;;;;;3.75;2.37;;;;;;;22.89;49.34;100827.06;1674317;85;21525;-72
2021/08/13 08:04:45;;;;;;;3.15;2.33;;;;;;;22.92;48.86;100819.42;1708032;82;20958;-73
2021/08/13 08:07:13;;;;;;;5.12;2.60;;;;;;;22.93;48.73;100817.05;1735512;82;20958;-72
2021/08/13 08:09:40;;;;;;;3.92;2.70;;;;;;;22.94;48.78;100821.92;1736219;82;21028;-72
2021/08/13 08:12:06;;;;;;;5.42;3.30;;;;;;;22.96;48.87;100815.81;1736955;82;21024;-72
2021/08/13 08:14:34;;;;;;;5.42;2.92;;;;;;;23.04;48.80;100818.39;1736792;82;22638;-73
2021/08/13 08:17:00;;;;;;;4.30;2.72;;;;;;;23.12;48.95;100812.36;1739008;82;21099;-73
2021/08/13 08:19:26;;;;;;;3.77;2.50;;;;;;;23.23;48.86;100817.75;1739183;82;21439;-72
2021/08/13 08:21:53;;;;;;;4.40;2.60;;;;;;;23.31;48.26;100815.44;1736130;82;21072;-73
2021/08/13 08:24:19;;;;;;;4.47;2.60;;;;;;;23.30;47.65;100805.69;1734260;82;21008;-74
2021/08/13 08:26:46;;;;;;;3.37;2.37;;;;;;;23.32;48.02;100811.71;1709953;83;21824;-72
2021/08/13 08:29:12;;;;;;;3.37;2.60;;;;;;;23.36;47.23;100811.66;1724209;82;20946;-74
2021/08/13 08:31:38;;;;;;;5.20;2.67;;;;;;;23.37;47.30;100814.67;1727939;82;21253;-73
2021/08/13 08:34:04;;;;;;;3.80;2.80;;;;;;;23.48;47.40;100806.05;1730072;82;20990;-73
2021/08/13 08:36:31;;;;;;;4.22;2.70;;;;;;;23.60;46.54;100811.24;1726014;82;21113;-74
2021/08/13 08:38:58;;;;;;;5.10;2.90;;;;;;;23.64;46.63;100816.58;1722568;82;21846;-73
2021/08/13 08:41:26;;;;;;;5.83;3.67;;;;;;;23.65;45.14;100812.02;1695282;83;21056;-71
2021/08/13 08:43:52;;;;;;;5.12;3.10;;;;;;;23.62;44.51;100816.44;1660981;85;20975;-72
2021/08/13 08:46:19;;;;;;;6.95;3.20;;;;;;;23.62;44.96;100810.52;1703204;82;20997;-71
2021/08/13 08:48:52;;;;;;;6.67;3.10;;;;;;;23.76;45.20;100806.59;1682977;85;21013;-71
2021/08/13 08:51:19;;;;;;;4.72;3.12;;;;;;;23.88;45.30;100810.40;1704997;83;22470;-72
2021/08/13 08:53:52;;;;;;;4.90;3.05;;;;;;;23.99;44.67;100802.58;1715175;83;21045;-71
2021/08/13 08:56:18;;;;;;;;;;;;;;;24.07;45.03;100815.59;1707289;83;21001;-73
2021/08/13 08:58:46;;;;;;;6.15;3.33;;;;;;;24.20;44.28;100807.55;1699276;83;20818;-73
2021/08/13 09:01:14;;;;;;;5.67;3.55;;;;;;;24.28;44.19;100820.37;1690812;82;20970;-71
2021/08/13 09:03:43;;;;;;;5.50;3.40;;;;;;;24.32;44.18;100807.84;1699526;83;22280;-71
2021/08/13 09:06:10;;;;;;;5.10;3.55;;;;;;;24.43;44.52;100803.23;1722927;82;21053;-71
2021/08/13 09:08:37;;;;;;;4.33;3.22;;;;;;;24.57;44.45;100806.81;1698860;83;20999;-71
2021/08/13 09:11:04;;;;;;;6.12;3.00;;;;;;;24.67;44.37;100804.55;1724570;82;20962;-71
2021/08/13 09:13:33;;;;;;;5.70;3.20;;;;;;;24.72;44.19;100814.24;1716202;82;21009;-72
2021/08/13 09:16:13;;;;;;;8.28;2.87;;;;;;;24.70;44.07;100810.37;1696625;82;22247;-72
2021/08/13 09:18:40;;;;;;;6.60;2.92;;;;;;;24.66;43.48;100817.23;1662810;85;21139;-71
2021/08/13 09:21:06;;;;;;;4.87;2.90;;;;;;;24.53;43.21;100816.67;1697507;84;21037;-72
2021/08/13 09:23:41;;;;;;;5.45;3.02;;;;;;;24.53;43.68;100818.03;1697549;84;21123;-71
2021/08/13 09:26:23;;;;;;;5.20;2.83;;;;;;;24.65;43.84;100820.97;1717065;82;21048;-71
2021/08/13 09:29:11;;;;;;;4.05;2.70;;;;;;;24.80;43.38;100812.19;1724691;82;21835;-72
2021/08/13 09:31:57;;;;;;;3.55;2.67;;;;;;;24.77;42.62;100817.15;1697472;82;21049;-72
2021/08/13 09:34:35;;;;;;;4.47;2.52;;;;;;;24.51;42.46;100816.05;1700111;82;21020;-71
2021/08/13 09:37:04;;;;;;;7.85;2.58;;;;;;;24.27;43.04;100818.70;1700515;82;21045;-72
2021/08/13 09:39:32;;;;;;;17.27;2.47;;;;;;;24.32;42.92;100823.55;1737593;82;21048;-74
2021/08/13 09:42:01;;;;;;;4.85;2.45;;;;;;;24.50;43.10;100816.23;1735354;82;22475;-70
2021/08/13 09:44:34;;;;;;;5.70;2.20;;;;;;;24.70;42.60;100820.34;1732638;82;21080;-71
2021/08/13 09:47:06;;;;;;;5.53;3.92;;;;;;;24.84;42.90;100818.84;1728755;82;21085;-73
2021/08/13 09:49:34;;;;;;;4.60;2.70;;;;;;;25.05;43.15;100809.75;1730512;82;21043;-72
2021/08/13 09:52:17;;;;;;;6.50;2.85;;;;;;;25.30;41.69;100818.11;1730507;81;21048;-73
2021/08/13 09:54:47;;;;;;;5.85;2.33;;;;;;;25.47;41.06;100815.80;1727865;82;22045;-71
2021/08/13 09:57:15;;;;;;;7.40;2.60;;;;;;;25.65;40.87;100807.05;1726934;83;21480;-73
2021/08/13 10:00:00;;;;;;;3.67;2.25;;;;;;;25.80;40.26;100809.05;1731502;82;21032;-73
2021/08/13 10:02:35;;;;;;;9.50;2.30;;;;;;;25.83;39.62;100819.97;1733910;82;21044;-71
2021/08/13 10:05:21;;;;;;;11.90;2.62;;;;;;;25.73;38.71;100819.05;1733652;82;21020;-71
2021/08/13 10:07:54;;;;;;;3.42;2.17;;;;;;;25.59;39.39;100816.86;1733152;82;22529;-71
2021/08/13 10:10:35;;;;;;;4.53;2.60;;;;;;;25.57;39.33;100824.32;1733359;82;21087;-71
2021/08/13 10:13:05;;;;;;;3.65;2.10;;;;;;;25.59;39.13;100822.27;1733598;82;21464;-73
2021/08/13 10:15:44;;;;;;;2.67;1.82;;;;;;;25.57;39.29;100821.61;1732672;82;20960;-73
2021/08/13 10:18:20;;;;;;;6.70;2.35;;;;;;;25.66;39.40;100833.89;1720380;82;21025;-73
2021/08/13 10:20:50;;;;;;;5.28;2.00;;;;;;;25.76;38.46;100820.48;1732028;82;21855;-74
2021/08/13 10:23:18;;;;;;;6.60;2.37;;;;;;;25.78;39.22;100821.14;1734603;80;21358;-75
2021/08/13 10:25:45;;;;;;;6.47;2.25;;;;;;;25.92;39.43;100824.11;1707198;82;21048;-73
2021/08/13 10:28:13;;;;;;;5.05;2.00;;;;;;;26.04;39.14;100823.77;1738270;82;21551;-74
2021/08/13 10:30:42;;;;;;;7.45;2.17;;;;;;;26.04;38.34;100826.47;1736562;82;21579;-75
2021/08/13 10:33:09;;;;;;;4.25;2.00;;;;;;;26.09;39.38;100817.20;1730783;82;21829;-75
2021/08/13 10:35:44;;;;;;;3.45;2.12;;;;;;;26.23;38.45;100822.05;1683707;83;20914;-75
2021/08/13 10:38:12;;;;;;;5.53;3.02;;;;;;;26.37;39.23;100825.55;1726433;82;20998;-75
2021/08/13 10:40:40;;;;;;;4.55;2.10;;;;;;;26.62;39.95;100819.72;1727759;82;20954;-74
2021/08/13 10:43:07;;;;;;;3.83;2.00;;;;;;;26.89;38.41;100818.22;1718707;82;21054;-74
2021/08/13 10:45:35;;;;;;;5.12;2.20;;;;;;;27.00;38.74;100820.23;1715513;82;22252;-71
2021/08/13 10:48:12;;;;;;;3.17;2.35;;;;;;;27.17;37.58;100821.92;1733477;82;20930;-72
2021/08/13 10:50:39;;;;;;;3.17;2.10;;;;;;;27.16;37.35;100826.52;1710288;82;21052;-70
2021/08/13 10:53:27;;;;;;;2.55;2.20;;;;;;;27.09;36.67;100828.44;1709205;82;21512;-71
2021/08/13 10:55:58;;;;;;;5.50;2.40;;;;;;;26.90;36.68;100826.66;1733588;82;21027;-71
2021/08/13 10:58:43;;;;;;;2.85;1.95;;;;;;;26.71;37.23;100822.48;1734416;82;21571;-71
2021/08/13 11:01:18;;;;;;;4.75;2.00;;;;;;;26.65;37.98;100811.17;1733734;82;20932;-72
2021/08/13 11:03:59;;;;;;;3.02;2.00;;;;;;;26.84;38.53;100824.84;1734397;82;20971;-71
2021/08/13 11:06:43;;;;;;;4.25;2.17;;;;;;;27.12;38.29;100810.89;1734020;82;21470;-71
2021/08/13 11:09:24;;;;;;;7.58;2.37;;;;;;;27.35;37.65;100818.75;1732701;82;20951;-71
2021/08/13 11:11:59;;;;;;;5.70;1.90;;;;;;;27.35;37.58;100817.92;1733593;82;21774;-71
2021/08/13 11:14:49;;;;;;;5.50;2.42;;;;;;;27.48;38.00;100817.80;1732025;82;20991;-71
2021/08/13 11:17:42;;;;;;;8.48;2.62;;;;;;;27.72;36.99;100816.17;1723407;82;21434;-71
2021/08/13 11:20:14;;;;;;;4.03;1.92;;;;;;;27.94;37.46;100814.67;1732610;82;21496;-71
2021/08/13 11:22:43;;;;;;;2.92;2.00;;;;;;;28.08;36.03;100821.31;1735759;81;20993;-72
2021/08/13 11:25:12;;;;;;;4.67;1.82;;;;;;;27.93;36.58;100817.09;1749400;81;21901;-72
2021/08/13 11:27:39;;;;;;;3.87;2.15;;;;;;;28.03;36.78;100815.74;1728935;82;21028;-73
2021/08/13 11:30:10;;;;;;;2.67;1.98;;;;;;;28.17;35.36;100811.80;1684109;83;21056;-72
2021/08/13 11:32:38;;;;;;;2.83;1.80;;;;;;;28.11;35.48;100814.91;1702399;82;21485;-72
2021/08/13 11:35:08;;;;;;;3.10;1.72;;;;;;;28.05;35.60;100806.83;1721857;82;21041;-72
2021/08/13 11:37:50;;;;;;;3.00;1.87;;;;;;;28.08;36.57;100813.98;1721718;83;22963;-72